»·PEaware :: N9BR KAVX-KSAN

N9BR :: KAVX-KSAN

FLIGHT INFORMATION

Flight Status: Arrived
Operator: Privately registered:
United States
More flights under this callsign
Pilot: John H. (7647)
Aircraft: MOONEY M-20 201 202 205 220 ATS MSE
(M20P)
More flights by this aircraft type
Origin: KAVX Catalina
United States
Destination: KSAN San Diego Intl-Lindbergh
United States
More flights between these airports :: More routes between these airports
Route: SXC V208 OCN V23 MZB
File this flight plan on PilotEdge
Remarks: I-8 Rating
Altitude:
(Current/Filed)
5,000ft
Speed:
(Current/Filed)
170kts
Departed: 07-Oct-18 07:32 AM
Arrived: 07-Oct-18 08:24 AM
Distance/Time
Traveled:
74nm/0:52
Distance/Time
To Go:
Arrived

Flight Plot

Page will automatically refresh every two minutes.


Map Options




Map Legend


Flown Route
Filed Route
Departure Airport
Arrival Airport
Navaid (VOR, NDB)
Fix

Horizontal Profiles

Position Reports

Time Latitude Longitude Heading Altitude Ground
Speed
07-Oct-18 07:17 33.403112 -118.415850 33 1566ft 0kts
07-Oct-18 07:18 33.403112 -118.415850 33 1566ft 0kts
07-Oct-18 07:19 33.403112 -118.415850 33 1566ft 0kts
07-Oct-18 07:20 33.403112 -118.415850 33 1566ft 0kts
07-Oct-18 07:21 33.403112 -118.415850 33 1566ft 0kts
07-Oct-18 07:22 33.403112 -118.415850 33 1566ft 0kts
07-Oct-18 07:23 33.403112 -118.415850 33 1566ft 0kts
07-Oct-18 07:24 33.403112 -118.415850 33 1566ft 0kts
07-Oct-18 07:25 33.403112 -118.415850 33 1566ft 0kts
07-Oct-18 07:26 33.403112 -118.415850 33 1566ft 0kts
07-Oct-18 07:27 33.403112 -118.415850 33 1566ft 0kts
07-Oct-18 07:28 33.403112 -118.415850 33 1566ft 0kts
07-Oct-18 07:29 33.403112 -118.415850 33 1566ft 0kts
07-Oct-18 07:30 33.403141 -118.415828 31 1566ft 1kts
07-Oct-18 07:31 33.404304 -118.415045 354 1563ft 9kts
07-Oct-18 07:32 33.406737 -118.412123 53 1548ft 17kts
07-Oct-18 07:33 33.406823 -118.412680 237 1551ft 19kts
07-Oct-18 07:34 33.395271 -118.436731 234 2366ft 114kts
07-Oct-18 07:35 33.370079 -118.423721 92 3592ft 128kts
07-Oct-18 07:36 33.369101 -118.374047 98 4134ft 165kts
07-Oct-18 07:37 33.362664 -118.323643 98 4887ft 175kts
07-Oct-18 07:38 33.354577 -118.262028 98 4886ft 191kts
07-Oct-18 07:39 33.347373 -118.207249 98 4885ft 189kts
07-Oct-18 07:40 33.339493 -118.147529 99 4886ft 189kts
07-Oct-18 07:41 33.331278 -118.085506 99 4887ft 189kts
07-Oct-18 07:42 33.324226 -118.032447 99 4886ft 189kts
07-Oct-18 07:43 33.316331 -117.973263 98 4979ft 185kts
07-Oct-18 07:44 33.308435 -117.914307 99 4996ft 188kts
07-Oct-18 07:45 33.300316 -117.853833 98 4993ft 189kts
07-Oct-18 07:46 33.292059 -117.791914 98 4995ft 189kts
07-Oct-18 07:47 33.283427 -117.730078 99 4996ft 188kts
07-Oct-18 07:48 33.274252 -117.669241 100 4997ft 189kts
07-Oct-18 07:49 33.265106 -117.608763 99 4999ft 188kts
07-Oct-18 07:50 33.256648 -117.547210 97 4994ft 189kts
07-Oct-18 07:51 33.249112 -117.485266 97 4996ft 188kts
07-Oct-18 07:52 33.243098 -117.436066 98 4994ft 187kts
07-Oct-18 07:53 33.243098 -117.436066 98 4994ft 187kts
07-Oct-18 07:54 33.242846 -117.434038 98 4994ft 186kts
07-Oct-18 07:55 33.202680 -117.402362 158 4998ft 186kts
07-Oct-18 07:56 33.154708 -117.381372 160 4996ft 186kts
07-Oct-18 07:57 33.106409 -117.361045 160 4996ft 186kts
07-Oct-18 07:58 33.066437 -117.344254 160 4997ft 186kts
07-Oct-18 07:59 33.018765 -117.324246 160 4996ft 186kts
07-Oct-18 08:00 32.970715 -117.304101 160 4996ft 186kts
07-Oct-18 08:01 32.922708 -117.284022 160 4995ft 186kts
07-Oct-18 08:02 32.878566 -117.265536 160 4996ft 186kts
07-Oct-18 08:03 32.830243 -117.245344 160 4995ft 183kts
07-Oct-18 08:04 32.801763 -117.207917 91 4993ft 170kts
07-Oct-18 08:05 32.801009 -117.154202 90 4993ft 168kts
07-Oct-18 08:06 32.800276 -117.099276 90 4998ft 167kts
07-Oct-18 08:07 32.799488 -117.044328 90 4995ft 166kts
07-Oct-18 08:08 32.798699 -116.989288 90 4992ft 167kts
07-Oct-18 08:09 32.797924 -116.934717 90 4997ft 166kts
07-Oct-18 08:10 32.797137 -116.879230 91 4960ft 168kts
07-Oct-18 08:11 32.796332 -116.824036 90 4959ft 167kts
07-Oct-18 08:12 32.795563 -116.769761 90 4957ft 167kts
07-Oct-18 08:13 32.782098 -116.722583 171 4955ft 166kts
07-Oct-18 08:14 32.757823 -116.760941 250 4959ft 156kts
07-Oct-18 08:15 32.731180 -116.799453 220 4957ft 153kts
07-Oct-18 08:16 32.700341 -116.833394 243 4961ft 151kts
07-Oct-18 08:17 32.685892 -116.882970 251 4237ft 160kts
07-Oct-18 08:18 32.672795 -116.929560 252 3741ft 137kts
07-Oct-18 08:19 32.680077 -116.970522 285 3739ft 142kts
07-Oct-18 08:20 32.691266 -117.016241 286 3313ft 137kts
07-Oct-18 08:21 32.701911 -117.059742 286 2425ft 137kts
07-Oct-18 08:22 32.712367 -117.102592 286 1544ft 134kts
07-Oct-18 08:23 32.720705 -117.136951 285 922ft 94kts
07-Oct-18 08:24 32.727267 -117.163879 286 414ft 76kts
07-Oct-18 08:25 32.732340 -117.184646 285 14ft 58kts
07-Oct-18 08:26 32.733101 -117.187466 297 14ft 0kts
07-Oct-18 08:27 32.733101 -117.187466 297 14ft 0kts
07-Oct-18 08:28 32.733101 -117.187466 297 14ft 0kts

Navigation Log

Ident Type
Flight plan parsing failed, navigation log unavailable